Time;durP1;ratioP1;P1;durP2;ratioP2;P2;SDS_P1;SDS_P2;PMS_P1;PMS_P2;Temp;Humidity;BMP_temperature;BMP_pressure;BME280_temperature;BME280_humidity;BME280_pressure;Samples;Min_cycle;Max_cycle;Signal;HPM_P1;HPM_P2
2023/12/02 00:01:26;;;;;;;31.05;17.73;;;;;;;;;;5011285;28;20037;-61
2023/12/02 00:03:52;;;;;;;28.60;16.58;;;;;;;;;;5012353;28;20473;-61
2023/12/02 00:06:18;;;;;;;26.98;15.93;;;;;;;;;;5010926;28;20968;-61
2023/12/02 00:08:44;;;;;;;27.88;15.98;;;;;;;;;;5012409;28;20033;-61
2023/12/02 00:11:11;;;;;;;29.48;16.00;;;;;;;;;;5013636;28;20126;-61
2023/12/02 00:13:37;;;;;;;26.52;16.73;;;;;;;;;;5013376;28;20681;-61
2023/12/02 00:16:04;;;;;;;29.08;16.00;;;;;;;;;;5012885;28;20045;-61
2023/12/02 00:18:30;;;;;;;30.00;16.38;;;;;;;;;;5013094;28;20128;-61
2023/12/02 00:20:56;;;;;;;29.52;17.52;;;;;;;;;;5014250;28;20041;-61
2023/12/02 00:23:22;;;;;;;34.08;17.20;;;;;;;;;;5012142;28;20029;-61
2023/12/02 00:25:48;;;;;;;27.20;16.38;;;;;;;;;;5013636;28;20034;-61
2023/12/02 00:28:14;;;;;;;28.60;17.05;;;;;;;;;;5012244;28;20047;-61
2023/12/02 00:30:40;;;;;;;32.17;17.50;;;;;;;;;;5013524;28;20037;-61
2023/12/02 00:33:06;;;;;;;28.83;16.98;;;;;;;;;;5013834;28;20041;-61
2023/12/02 00:35:32;;;;;;;31.73;18.45;;;;;;;;;;5013205;28;20041;-61
2023/12/02 00:37:58;;;;;;;27.42;16.63;;;;;;;;;;5012923;28;20029;-61
2023/12/02 00:40:25;;;;;;;29.27;17.65;;;;;;;;;;5011253;28;20029;-61
2023/12/02 00:42:51;;;;;;;27.50;17.35;;;;;;;;;;5013472;28;20072;-61
2023/12/02 00:45:17;;;;;;;29.05;17.90;;;;;;;;;;5010999;28;20037;-61
2023/12/02 00:47:43;;;;;;;27.83;16.50;;;;;;;;;;5012781;28;20037;-61
2023/12/02 00:50:09;;;;;;;30.02;16.58;;;;;;;;;;5012868;28;20141;-61
2023/12/02 00:52:36;;;;;;;28.75;16.23;;;;;;;;;;5013324;28;20116;-61
2023/12/02 00:55:02;;;;;;;28.13;16.17;;;;;;;;;;5013517;28;20041;-61
2023/12/02 00:57:28;;;;;;;31.98;17.08;;;;;;;;;;5012334;28;20037;-61
2023/12/02 00:59:54;;;;;;;31.00;17.33;;;;;;;;;;5013035;28;20037;-61
2023/12/02 01:02:20;;;;;;;28.17;16.35;;;;;;;;;;5010190;28;20034;-61
2023/12/02 01:04:46;;;;;;;26.88;16.13;;;;;;;;;;5012036;28;20029;-61
2023/12/02 01:07:12;;;;;;;28.40;16.67;;;;;;;;;;5014115;28;20041;-61
2023/12/02 01:09:38;;;;;;;30.38;18.02;;;;;;;;;;5012567;28;21830;-61
2023/12/02 01:12:04;;;;;;;30.40;16.65;;;;;;;;;;5011189;28;20407;-61
2023/12/02 01:14:30;;;;;;;26.23;15.90;;;;;;;;;;5011669;28;20069;-61
2023/12/02 01:16:56;;;;;;;27.52;16.50;;;;;;;;;;5012857;28;20432;-61
2023/12/02 01:19:22;;;;;;;27.65;16.63;;;;;;;;;;5012983;28;20126;-61
2023/12/02 01:21:48;;;;;;;26.10;15.40;;;;;;;;;;5010857;28;20038;-61
2023/12/02 01:24:15;;;;;;;27.67;16.30;;;;;;;;;;5013470;28;20069;-61
2023/12/02 01:26:41;;;;;;;29.25;16.23;;;;;;;;;;5012203;28;20029;-61
2023/12/02 01:29:07;;;;;;;29.77;17.10;;;;;;;;;;5011741;28;20029;-61
2023/12/02 01:31:33;;;;;;;28.10;16.08;;;;;;;;;;5010804;28;20041;-61
2023/12/02 01:33:59;;;;;;;29.48;16.38;;;;;;;;;;5012796;28;20038;-61
2023/12/02 01:36:25;;;;;;;28.50;17.40;;;;;;;;;;5011488;28;20370;-61
2023/12/02 01:38:51;;;;;;;31.00;16.80;;;;;;;;;;5010345;28;20413;-61
2023/12/02 01:41:17;;;;;;;27.38;15.98;;;;;;;;;;5013088;28;20037;-61
2023/12/02 01:43:44;;;;;;;29.15;17.23;;;;;;;;;;5011284;28;20033;-61
2023/12/02 01:46:10;;;;;;;28.42;16.02;;;;;;;;;;5012657;28;20072;-61
2023/12/02 01:48:36;;;;;;;28.75;16.80;;;;;;;;;;5010597;28;20065;-61
2023/12/02 01:51:03;;;;;;;33.75;16.83;;;;;;;;;;5012963;28;20050;-60
2023/12/02 01:53:29;;;;;;;27.63;16.60;;;;;;;;;;5012339;28;20095;-60
2023/12/02 01:55:55;;;;;;;29.85;17.73;;;;;;;;;;5011945;28;20093;-61
2023/12/02 01:58:21;;;;;;;28.10;16.08;;;;;;;;;;5013095;28;20045;-61
2023/12/02 02:00:47;;;;;;;32.83;17.65;;;;;;;;;;5010917;28;21157;-61
2023/12/02 02:03:13;;;;;;;28.70;17.35;;;;;;;;;;5012576;28;21811;-61
2023/12/02 02:05:39;;;;;;;32.83;18.27;;;;;;;;;;5011592;28;20053;-61
2023/12/02 02:08:05;;;;;;;29.08;16.27;;;;;;;;;;5011622;28;20052;-60
2023/12/02 02:10:31;;;;;;;29.33;16.52;;;;;;;;;;5011868;28;20076;-61
2023/12/02 02:12:57;;;;;;;29.88;16.25;;;;;;;;;;5012217;28;20041;-61
2023/12/02 02:15:23;;;;;;;30.00;16.83;;;;;;;;;;5012621;28;20053;-61
2023/12/02 02:17:50;;;;;;;30.08;15.93;;;;;;;;;;5010587;28;20099;-61
2023/12/02 02:20:16;;;;;;;28.70;16.65;;;;;;;;;;5011841;28;20025;-61
2023/12/02 02:22:42;;;;;;;27.58;16.67;;;;;;;;;;5010803;28;21375;-61
2023/12/02 02:25:08;;;;;;;25.42;15.25;;;;;;;;;;5011294;28;20084;-61
2023/12/02 02:27:34;;;;;;;27.83;15.35;;;;;;;;;;5010985;28;20041;-61
2023/12/02 02:30:00;;;;;;;26.02;16.38;;;;;;;;;;5011352;28;20033;-61
2023/12/02 02:32:26;;;;;;;29.80;16.25;;;;;;;;;;5011380;28;20025;-61
2023/12/02 02:34:52;;;;;;;27.92;16.25;;;;;;;;;;5010338;28;20041;-61
2023/12/02 02:37:19;;;;;;;31.50;17.08;;;;;;;;;;5010167;28;20195;-61
2023/12/02 02:39:45;;;;;;;29.42;17.77;;;;;;;;;;5010599;28;20038;-61
2023/12/02 02:42:11;;;;;;;28.77;16.60;;;;;;;;;;5009490;28;20017;-61
2023/12/02 02:44:38;;;;;;;30.83;18.27;;;;;;;;;;5011340;28;20048;-61
2023/12/02 02:47:04;;;;;;;27.73;15.95;;;;;;;;;;5010699;28;20034;-61
2023/12/02 02:49:30;;;;;;;33.00;17.63;;;;;;;;;;5011598;28;20532;-61
2023/12/02 02:51:57;;;;;;;28.55;17.55;;;;;;;;;;5011000;28;20041;-61
2023/12/02 02:54:23;;;;;;;31.70;18.17;;;;;;;;;;5010150;28;20122;-61
2023/12/02 02:56:49;;;;;;;30.02;17.23;;;;;;;;;;5010479;28;20401;-60
2023/12/02 02:59:16;;;;;;;31.35;18.13;;;;;;;;;;5009335;28;20057;-60
2023/12/02 03:01:43;;;;;;;29.15;16.27;;;;;;;;;;5010681;28;20026;-61
2023/12/02 03:04:09;;;;;;;30.92;16.58;;;;;;;;;;5011014;28;20091;-61
2023/12/02 03:06:35;;;;;;;28.55;17.20;;;;;;;;;;5011009;28;20048;-61
2023/12/02 03:09:01;;;;;;;29.48;17.08;;;;;;;;;;5009395;28;20047;-61
2023/12/02 03:11:27;;;;;;;28.77;16.80;;;;;;;;;;5011229;28;20092;-61
2023/12/02 03:13:53;;;;;;;31.55;17.20;;;;;;;;;;5010434;28;20037;-61
2023/12/02 03:16:20;;;;;;;29.70;16.67;;;;;;;;;;5009433;28;20049;-61
2023/12/02 03:18:46;;;;;;;29.88;16.38;;;;;;;;;;5010848;28;21135;-61
2023/12/02 03:21:12;;;;;;;28.23;17.25;;;;;;;;;;5010687;28;20034;-61
2023/12/02 03:23:38;;;;;;;29.58;17.15;;;;;;;;;;5010754;28;20032;-61
2023/12/02 03:26:04;;;;;;;27.17;16.83;;;;;;;;;;5007201;28;20038;-61
2023/12/02 03:28:30;;;;;;;28.25;15.93;;;;;;;;;;5010704;28;20056;-61
2023/12/02 03:30:56;;;;;;;30.75;16.42;;;;;;;;;;5011172;28;20044;-61
2023/12/02 03:33:22;;;;;;;29.35;17.50;;;;;;;;;;5010233;28;20111;-61
2023/12/02 03:35:49;;;;;;;34.80;16.75;;;;;;;;;;5011588;28;20040;-61
2023/12/02 03:38:15;;;;;;;26.75;15.68;;;;;;;;;;5010551;28;20060;-61
2023/12/02 03:40:41;;;;;;;26.63;15.77;;;;;;;;;;5011519;28;20108;-61
2023/12/02 03:43:07;;;;;;;27.85;15.82;;;;;;;;;;5009157;28;20037;-61
2023/12/02 03:45:33;;;;;;;30.73;16.70;;;;;;;;;;5009189;28;20029;-61
2023/12/02 03:47:59;;;;;;;28.98;17.35;;;;;;;;;;5009663;28;20041;-61
2023/12/02 03:50:25;;;;;;;27.05;15.82;;;;;;;;;;5010047;28;20048;-61
2023/12/02 03:52:51;;;;;;;26.77;16.05;;;;;;;;;;5010375;28;20041;-61
2023/12/02 03:55:18;;;;;;;29.60;16.08;;;;;;;;;;5010594;28;20042;-61
2023/12/02 03:57:44;;;;;;;29.23;15.15;;;;;;;;;;5009948;28;20087;-61
2023/12/02 04:00:13;;;;;;;26.02;15.38;;;;;;;;;;5010573;28;20045;-61
2023/12/02 04:02:39;;;;;;;26.45;15.57;;;;;;;;;;5009330;28;20054;-61
2023/12/02 04:05:09;;;;;;;28.38;17.15;;;;;;;;;;5008577;28;20090;-61
2023/12/02 04:07:36;;;;;;;27.23;15.05;;;;;;;;;;5010314;28;20615;-61
2023/12/02 04:10:03;;;;;;;24.13;14.75;;;;;;;;;;5009772;28;21020;-61
2023/12/02 04:12:29;;;;;;;26.08;15.25;;;;;;;;;;5010341;28;20953;-61
2023/12/02 04:14:55;;;;;;;25.60;14.93;;;;;;;;;;5011354;28;20036;-61
2023/12/02 04:17:22;;;;;;;27.02;16.08;;;;;;;;;;5008945;28;20060;-61
2023/12/02 04:19:48;;;;;;;26.58;15.88;;;;;;;;;;5010595;28;20030;-61
2023/12/02 04:22:14;;;;;;;26.15;15.75;;;;;;;;;;5007119;28;20033;-61
2023/12/02 04:24:40;;;;;;;25.33;14.43;;;;;;;;;;5010355;28;20030;-61
2023/12/02 04:27:07;;;;;;;26.50;14.77;;;;;;;;;;5010003;28;20135;-61
2023/12/02 04:29:36;;;;;;;25.10;15.15;;;;;;;;;;5009530;28;21072;-61
2023/12/02 04:32:03;;;;;;;24.95;14.10;;;;;;;;;;5010400;28;20040;-61
2023/12/02 04:34:29;;;;;;;23.77;14.32;;;;;;;;;;5009567;28;20056;-61
2023/12/02 04:36:56;;;;;;;25.38;14.40;;;;;;;;;;5010164;28;20026;-61
2023/12/02 04:39:22;;;;;;;25.00;14.18;;;;;;;;;;5010521;28;20121;-61
2023/12/02 04:41:48;;;;;;;24.33;14.50;;;;;;;;;;5014042;28;21889;-61
2023/12/02 04:44:14;;;;;;;24.63;14.98;;;;;;;;;;5013169;28;20491;-61
2023/12/02 04:46:43;;;;;;;24.65;13.73;;;;;;;;;;5013274;28;20029;-61
2023/12/02 04:49:09;;;;;;;25.92;14.68;;;;;;;;;;5013142;28;20044;-61
2023/12/02 04:51:35;;;;;;;23.38;15.20;;;;;;;;;;5012663;28;20041;-61
2023/12/02 04:54:01;;;;;;;27.17;15.27;;;;;;;;;;5014943;28;20080;-61
2023/12/02 04:56:27;;;;;;;26.33;15.07;;;;;;;;;;5013120;28;20064;-61
2023/12/02 04:58:53;;;;;;;22.67;14.32;;;;;;;;;;5013053;28;20120;-61
2023/12/02 05:01:19;;;;;;;25.13;14.40;;;;;;;;;;5012504;28;20040;-61
2023/12/02 05:03:45;;;;;;;26.77;15.90;;;;;;;;;;5013037;28;20033;-61
2023/12/02 05:06:15;;;;;;;27.00;15.82;;;;;;;;;;5011295;28;20117;-61
2023/12/02 05:08:41;;;;;;;23.90;15.57;;;;;;;;;;5012481;28;20060;-61
2023/12/02 05:11:08;;;;;;;26.45;15.40;;;;;;;;;;5012162;28;20446;-61
2023/12/02 05:13:34;;;;;;;24.75;15.02;;;;;;;;;;5012196;28;20089;-61
2023/12/02 05:16:00;;;;;;;24.05;14.57;;;;;;;;;;5010555;28;21340;-61
2023/12/02 05:18:26;;;;;;;26.42;15.18;;;;;;;;;;5012757;28;20033;-61
2023/12/02 05:20:52;;;;;;;24.23;15.68;;;;;;;;;;5012129;28;20040;-61
2023/12/02 05:23:18;;;;;;;23.35;14.23;;;;;;;;;;5012103;28;20040;-61
2023/12/02 05:25:44;;;;;;;24.65;14.98;;;;;;;;;;5011767;28;20041;-61
2023/12/02 05:28:10;;;;;;;24.33;15.27;;;;;;;;;;5012567;28;20034;-61
2023/12/02 05:30:36;;;;;;;26.02;15.15;;;;;;;;;;5012302;28;20060;-61
2023/12/02 05:33:02;;;;;;;25.52;15.70;;;;;;;;;;5012979;28;20054;-61
2023/12/02 05:35:28;;;;;;;26.25;15.85;;;;;;;;;;5012632;28;20029;-61
2023/12/02 05:37:54;;;;;;;26.10;15.00;;;;;;;;;;5010566;28;20057;-61
2023/12/02 05:40:20;;;;;;;26.08;15.63;;;;;;;;;;5013231;28;20037;-61
2023/12/02 05:42:46;;;;;;;24.65;14.27;;;;;;;;;;5012084;28;20039;-61
2023/12/02 05:45:12;;;;;;;25.38;15.60;;;;;;;;;;5013523;28;20029;-61
2023/12/02 05:47:38;;;;;;;23.45;14.50;;;;;;;;;;5011910;28;20037;-61
2023/12/02 05:50:05;;;;;;;23.55;14.48;;;;;;;;;;5011904;28;20049;-61
2023/12/02 05:52:31;;;;;;;26.98;16.52;;;;;;;;;;5011867;28;20037;-61
2023/12/02 05:54:57;;;;;;;26.23;16.10;;;;;;;;;;5011155;28;20042;-61
2023/12/02 05:57:23;;;;;;;26.88;15.82;;;;;;;;;;5011758;28;20030;-61
2023/12/02 05:59:50;;;;;;;24.85;15.68;;;;;;;;;;5010714;28;20746;-61
2023/12/02 06:02:16;;;;;;;24.27;14.90;;;;;;;;;;5012566;28;20420;-61
2023/12/02 06:04:42;;;;;;;26.10;15.68;;;;;;;;;;5011880;28;20031;-61
2023/12/02 06:07:08;;;;;;;26.52;15.15;;;;;;;;;;5012252;28;20112;-61
2023/12/02 06:09:34;;;;;;;24.20;14.65;;;;;;;;;;5010454;28;20029;-60
2023/12/02 06:12:01;;;;;;;23.00;13.73;;;;;;;;;;5009427;28;20491;-62
2023/12/02 06:14:27;;;;;;;25.52;15.45;;;;;;;;;;5011525;28;20037;-62
2023/12/02 06:16:53;;;;;;;27.60;16.08;;;;;;;;;;5011722;28;20044;-62
2023/12/02 06:19:20;;;;;;;24.85;15.57;;;;;;;;;;5012150;28;20029;-62
2023/12/02 06:21:46;;;;;;;26.00;15.13;;;;;;;;;;5011469;28;20030;-62
2023/12/02 06:24:12;;;;;;;24.42;15.68;;;;;;;;;;5013011;28;20033;-62
2023/12/02 06:26:39;;;;;;;23.80;14.43;;;;;;;;;;5011034;28;20037;-62
2023/12/02 06:29:05;;;;;;;23.95;14.70;;;;;;;;;;5011360;28;20045;-62
2023/12/02 06:31:31;;;;;;;23.67;14.43;;;;;;;;;;5010917;28;20037;-62
2023/12/02 06:33:57;;;;;;;25.52;15.02;;;;;;;;;;5011623;28;20033;-62
2023/12/02 06:36:23;;;;;;;23.77;14.43;;;;;;;;;;5011182;28;20025;-62
2023/12/02 06:38:49;;;;;;;24.48;15.05;;;;;;;;;;5010436;28;20030;-62
2023/12/02 06:41:15;;;;;;;24.77;14.70;;;;;;;;;;5010854;28;20178;-62
2023/12/02 06:43:41;;;;;;;23.80;14.73;;;;;;;;;;5009751;28;20034;-62
2023/12/02 06:46:09;;;;;;;22.63;14.35;;;;;;;;;;5010269;28;20037;-62
2023/12/02 06:48:35;;;;;;;22.98;14.43;;;;;;;;;;5009958;28;20020;-62
2023/12/02 06:51:01;;;;;;;25.42;14.02;;;;;;;;;;5010472;28;20465;-61
2023/12/02 06:53:27;;;;;;;23.77;14.10;;;;;;;;;;5011257;28;20049;-61
2023/12/02 06:55:53;;;;;;;25.35;14.85;;;;;;;;;;5010926;28;20049;-61
2023/12/02 06:58:19;;;;;;;23.90;14.60;;;;;;;;;;5011124;28;20032;-62
2023/12/02 07:00:45;;;;;;;22.23;13.45;;;;;;;;;;5008932;28;20405;-62
2023/12/02 07:03:12;;;;;;;21.83;13.30;;;;;;;;;;5008507;28;20034;-62
2023/12/02 07:05:38;;;;;;;23.45;13.73;;;;;;;;;;5011451;28;20040;-61
2023/12/02 07:08:04;;;;;;;25.33;14.98;;;;;;;;;;5010208;28;20030;-62
2023/12/02 07:10:30;;;;;;;24.75;14.88;;;;;;;;;;5011784;28;20056;-62
2023/12/02 07:12:56;;;;;;;27.17;15.95;;;;;;;;;;5010611;28;20943;-62
2023/12/02 07:15:22;;;;;;;24.30;14.93;;;;;;;;;;5012062;28;20409;-62
2023/12/02 07:17:48;;;;;;;25.23;15.32;;;;;;;;;;5008721;28;20527;-62
2023/12/02 07:20:15;;;;;;;25.33;15.70;;;;;;;;;;5010309;28;20025;-62
2023/12/02 07:22:41;;;;;;;22.80;14.70;;;;;;;;;;5010489;28;20632;-62
2023/12/02 07:25:07;;;;;;;22.90;13.95;;;;;;;;;;5010132;28;20044;-62
2023/12/02 07:27:33;;;;;;;26.90;15.38;;;;;;;;;;5011178;28;20037;-62
2023/12/02 07:30:00;;;;;;;24.92;14.73;;;;;;;;;;5010112;28;20376;-62
2023/12/02 07:32:26;;;;;;;23.65;14.15;;;;;;;;;;5010535;28;20033;-61
2023/12/02 07:34:52;;;;;;;25.45;14.43;;;;;;;;;;5008087;28;20106;-62
2023/12/02 07:37:18;;;;;;;23.33;14.57;;;;;;;;;;5010707;28;20037;-62
2023/12/02 07:39:44;;;;;;;26.50;14.18;;;;;;;;;;5010265;28;20033;-62
2023/12/02 07:42:10;;;;;;;25.73;15.10;;;;;;;;;;5011108;28;20037;-62
2023/12/02 07:44:36;;;;;;;24.20;14.70;;;;;;;;;;5010889;28;20049;-62
2023/12/02 07:47:02;;;;;;;26.15;16.42;;;;;;;;;;5010771;28;20034;-62
2023/12/02 07:49:28;;;;;;;25.85;15.38;;;;;;;;;;5010616;28;20936;-62
2023/12/02 07:51:55;;;;;;;26.52;15.43;;;;;;;;;;5009375;28;20040;-62
2023/12/02 07:54:21;;;;;;;26.60;14.43;;;;;;;;;;5011618;28;20073;-62
2023/12/02 07:56:47;;;;;;;25.52;15.60;;;;;;;;;;5010250;28;20120;-62
2023/12/02 07:59:13;;;;;;;22.02;14.00;;;;;;;;;;5011212;28;20037;-62
2023/12/02 08:01:40;;;;;;;23.75;14.82;;;;;;;;;;5007648;28;20036;-62
2023/12/02 08:04:06;;;;;;;26.80;15.50;;;;;;;;;;5009133;28;20200;-62
2023/12/02 08:06:32;;;;;;;25.77;14.85;;;;;;;;;;5008636;28;20060;-62
2023/12/02 08:08:58;;;;;;;26.40;15.27;;;;;;;;;;5009796;28;20037;-62
2023/12/02 08:11:24;;;;;;;25.27;15.35;;;;;;;;;;5010441;28;20033;-62
2023/12/02 08:13:50;;;;;;;27.08;14.90;;;;;;;;;;5013245;28;20040;-62
2023/12/02 08:16:16;;;;;;;23.27;14.45;;;;;;;;;;5012548;28;20050;-62
2023/12/02 08:18:42;;;;;;;23.33;14.30;;;;;;;;;;5010276;28;20056;-62
2023/12/02 08:21:08;;;;;;;27.80;15.93;;;;;;;;;;5010135;28;20045;-62
2023/12/02 08:23:34;;;;;;;27.13;15.77;;;;;;;;;;5010096;28;20068;-62
2023/12/02 08:26:01;;;;;;;26.98;15.65;;;;;;;;;;5013412;28;20071;-62
2023/12/02 08:28:27;;;;;;;26.83;15.75;;;;;;;;;;5012937;28;20164;-62
2023/12/02 08:30:53;;;;;;;29.77;17.77;;;;;;;;;;5013061;28;20041;-62
2023/12/02 08:33:19;;;;;;;26.95;16.52;;;;;;;;;;5013842;28;20041;-62
2023/12/02 08:35:45;;;;;;;28.33;16.30;;;;;;;;;;5014001;28;20034;-62
2023/12/02 08:38:11;;;;;;;23.77;14.27;;;;;;;;;;5010774;28;20488;-61
2023/12/02 08:40:39;;;;;;;28.08;16.27;;;;;;;;;;5013642;28;20037;-61
2023/12/02 08:43:05;;;;;;;24.98;15.82;;;;;;;;;;5011830;28;20622;-62
2023/12/02 08:45:31;;;;;;;26.95;15.35;;;;;;;;;;5011802;28;21534;-61
2023/12/02 08:47:57;;;;;;;26.25;16.40;;;;;;;;;;5012962;28;20943;-61
2023/12/02 08:50:23;;;;;;;25.67;15.60;;;;;;;;;;5011454;28;20136;-61
2023/12/02 08:52:49;;;;;;;26.58;15.90;;;;;;;;;;5012687;28;20524;-61
2023/12/02 08:55:15;;;;;;;26.08;16.60;;;;;;;;;;5011489;28;20033;-61
2023/12/02 08:57:41;;;;;;;24.60;15.45;;;;;;;;;;5011489;28;20120;-61
2023/12/02 09:00:08;;;;;;;27.10;15.95;;;;;;;;;;5011562;28;20072;-61
2023/12/02 09:02:34;;;;;;;27.70;16.00;;;;;;;;;;5009877;28;20485;-61
2023/12/02 09:05:02;;;;;;;25.83;15.35;;;;;;;;;;5010496;28;20464;-61
2023/12/02 09:07:28;;;;;;;27.95;17.13;;;;;;;;;;5013335;28;20037;-61
2023/12/02 09:09:54;;;;;;;25.88;15.65;;;;;;;;;;5009597;28;20036;-61
2023/12/02 09:12:21;;;;;;;25.35;16.40;;;;;;;;;;5013095;28;20041;-61
2023/12/02 09:14:47;;;;;;;28.52;15.90;;;;;;;;;;5012653;28;20044;-62
2023/12/02 09:17:32;;;;;;;24.45;15.35;;;;;;;;;;5012886;28;20130;-61
2023/12/02 09:19:58;;;;;;;27.58;15.85;;;;;;;;;;5013797;28;20154;-61
2023/12/02 09:22:33;;;;;;;27.15;16.17;;;;;;;;;;5012199;28;20033;-61
2023/12/02 09:24:59;;;;;;;26.40;16.17;;;;;;;;;;5012330;28;20167;-61
2023/12/02 09:27:57;;;;;;;27.33;15.85;;;;;;;;;;5010890;28;20388;-61
2023/12/02 09:30:23;;;;;;;28.13;16.30;;;;;;;;;;5012991;28;20234;-61
2023/12/02 09:32:49;;;;;;;23.08;15.30;;;;;;;;;;5012034;28;20041;-61
2023/12/02 09:35:15;;;;;;;27.13;16.23;;;;;;;;;;5012159;28;20041;-61
2023/12/02 09:37:48;;;;;;;26.05;15.23;;;;;;;;;;5013359;28;20034;-61
2023/12/02 09:40:23;;;;;;;24.83;15.15;;;;;;;;;;5012883;28;20087;-61
2023/12/02 09:42:52;;;;;;;23.48;13.63;;;;;;;;;;5010979;28;20034;-61
2023/12/02 09:45:19;;;;;;;26.55;15.60;;;;;;;;;;5010844;28;20474;-61
2023/12/02 09:47:51;;;;;;;25.63;15.27;;;;;;;;;;5011640;28;20049;-61
2023/12/02 09:50:20;;;;;;;24.55;14.43;;;;;;;;;;5009587;28;21771;-61
2023/12/02 09:52:49;;;;;;;26.45;16.40;;;;;;;;;;5009886;28;20044;-61
2023/12/02 09:55:15;;;;;;;27.70;16.30;;;;;;;;;;5011329;28;20037;-61
2023/12/02 09:57:48;;;;;;;24.40;14.45;;;;;;;;;;5011988;28;20037;-60
2023/12/02 10:00:26;;;;;;;26.23;15.67;;;;;;;;;;5009646;28;20155;-61
2023/12/02 10:03:13;;;;;;;24.73;14.82;;;;;;;;;;5010906;28;21250;-60
2023/12/02 10:06:06;;;;;;;25.13;14.98;;;;;;;;;;5012167;28;20051;-61
2023/12/02 10:08:52;;;;;;;22.98;14.68;;;;;;;;;;5007064;28;20033;-60
2023/12/02 10:11:21;;;;;;;21.85;14.38;;;;;;;;;;5011826;28;20060;-60
2023/12/02 10:13:59;;;;;;;27.95;16.42;;;;;;;;;;5009758;28;20037;-60
2023/12/02 10:16:29;;;;;;;24.42;15.20;;;;;;;;;;5009594;28;20171;-61
2023/12/02 10:18:58;;;;;;;23.40;14.23;;;;;;;;;;5010790;28;20066;-60
2023/12/02 10:21:28;;;;;;;23.52;15.07;;;;;;;;;;5009450;28;20029;-60
2023/12/02 10:23:54;;;;;;;24.45;14.68;;;;;;;;;;5008890;28;20032;-60
2023/12/02 10:26:36;;;;;;;23.35;14.85;;;;;;;;;;5009788;28;20049;-60
2023/12/02 10:29:05;;;;;;;22.25;13.93;;;;;;;;;;5010939;28;20752;-60
2023/12/02 10:31:31;;;;;;;26.88;14.63;;;;;;;;;;5010129;28;20944;-60
2023/12/02 10:34:22;;;;;;;22.38;13.85;;;;;;;;;;5012134;28;20158;-60
2023/12/02 10:36:48;;;;;;;23.13;13.27;;;;;;;;;;5008004;28;20037;-60
2023/12/02 10:39:29;;;;;;;22.90;13.80;;;;;;;;;;5011107;28;20083;-60
2023/12/02 10:42:02;;;;;;;22.70;14.10;;;;;;;;;;5009095;28;20029;-60
2023/12/02 10:44:30;;;;;;;21.13;12.88;;;;;;;;;;4997417;28;20900;-60
2023/12/02 10:46:58;;;;;;;22.35;13.05;;;;;;;;;;5009856;28;20037;-60
2023/12/02 10:49:25;;;;;;;22.65;14.50;;;;;;;;;;5006645;28;20028;-60
2023/12/02 10:51:54;;;;;;;21.73;13.50;;;;;;;;;;5001505;28;20034;-60
2023/12/02 10:54:23;;;;;;;21.40;13.45;;;;;;;;;;5006299;28;20033;-60
2023/12/02 10:56:50;;;;;;;20.48;12.75;;;;;;;;;;5004858;28;20033;-60
2023/12/02 10:59:20;;;;;;;21.90;13.65;;;;;;;;;;5006540;28;21063;-60
2023/12/02 11:01:50;;;;;;;17.73;11.90;;;;;;;;;;5006180;28;20040;-60
2023/12/02 11:04:16;;;;;;;20.85;13.13;;;;;;;;;;5005741;28;21601;-60
2023/12/02 11:06:44;;;;;;;19.75;12.32;;;;;;;;;;5002736;28;20044;-60
2023/12/02 11:09:33;;;;;;;22.98;13.23;;;;;;;;;;5002288;28;20049;-60
2023/12/02 11:12:04;;;;;;;20.75;12.98;;;;;;;;;;5002997;28;20931;-60
2023/12/02 11:14:36;;;;;;;20.02;12.85;;;;;;;;;;5004690;28;20033;-60
2023/12/02 11:17:02;;;;;;;20.92;12.48;;;;;;;;;;5005512;28;20163;-60
2023/12/02 11:19:28;;;;;;;20.40;12.90;;;;;;;;;;5005200;28;20029;-60
2023/12/02 11:22:03;;;;;;;18.40;12.20;;;;;;;;;;5000058;28;20045;-60
2023/12/02 11:24:39;;;;;;;19.52;12.77;;;;;;;;;;5005764;28;20625;-60
2023/12/02 11:27:13;;;;;;;19.30;12.05;;;;;;;;;;5005372;28;20063;-60
2023/12/02 11:29:42;;;;;;;21.60;13.20;;;;;;;;;;5004089;28;20167;-60
2023/12/02 11:32:17;;;;;;;21.00;12.10;;;;;;;;;;5005667;28;20036;-60
2023/12/02 11:35:01;;;;;;;19.63;12.20;;;;;;;;;;5004734;28;20116;-60
2023/12/02 11:37:28;;;;;;;;;;;;;;;;;;5007691;28;20354;-60
2023/12/02 11:39:54;;;;;;;20.35;11.02;;;;;;;;;;5005242;28;19921;-60
2023/12/02 11:42:21;;;;;;;19.90;11.68;;;;;;;;;;5005164;28;20115;-60
2023/12/02 11:44:55;;;;;;;22.35;12.57;;;;;;;;;;5005647;28;20647;-60
2023/12/02 11:47:21;;;;;;;;;;;;;;;;;;5007054;28;20029;-60
2023/12/02 11:49:56;;;;;;;18.45;11.32;;;;;;;;;;5008568;28;20062;-60
2023/12/02 11:52:25;;;;;;;17.42;12.05;;;;;;;;;;5006953;28;20704;-60
2023/12/02 11:55:05;;;;;;;19.70;11.93;;;;;;;;;;5004504;28;20038;-60
2023/12/02 11:57:50;;;;;;;19.70;10.85;;;;;;;;;;5003323;28;20140;-60
2023/12/02 12:00:18;;;;;;;17.55;10.85;;;;;;;;;;4984447;28;20041;-60
2023/12/02 12:02:44;;;;;;;18.42;10.88;;;;;;;;;;5002868;28;20038;-60
2023/12/02 12:05:10;;;;;;;18.13;10.73;;;;;;;;;;5007202;28;20036;-59
2023/12/02 12:07:46;;;;;;;18.17;11.52;;;;;;;;;;5004699;28;20041;-60
2023/12/02 12:10:22;;;;;;;17.80;10.75;;;;;;;;;;5004035;28;20045;-60
2023/12/02 12:12:49;;;;;;;16.15;10.65;;;;;;;;;;5000004;28;20060;-60
2023/12/02 12:15:15;;;;;;;18.25;11.13;;;;;;;;;;4999221;28;20041;-59
2023/12/02 12:17:42;;;;;;;18.08;11.30;;;;;;;;;;5004855;28;20160;-60
2023/12/02 12:20:18;;;;;;;17.98;10.63;;;;;;;;;;5002545;28;20836;-60
2023/12/02 12:22:44;;;;;;;18.65;9.93;;;;;;;;;;5006263;28;20088;-60
2023/12/02 12:25:10;;;;;;;16.60;10.70;;;;;;;;;;5006265;28;20520;-60
2023/12/02 12:27:36;;;;;;;17.58;10.60;;;;;;;;;;5004449;28;20039;-60
2023/12/02 12:30:03;;;;;;;16.80;10.32;;;;;;;;;;5002915;28;20045;-60
2023/12/02 12:32:29;;;;;;;19.10;11.27;;;;;;;;;;4993201;28;20048;-60
2023/12/02 12:34:58;;;;;;;17.55;10.63;;;;;;;;;;4999205;28;20041;-60
2023/12/02 12:37:24;;;;;;;15.50;9.93;;;;;;;;;;4994513;28;20076;-60
2023/12/02 12:39:50;;;;;;;17.00;9.93;;;;;;;;;;4999663;28;20024;-60
2023/12/02 12:42:17;;;;;;;14.63;9.30;;;;;;;;;;5000696;28;20038;-60
2023/12/02 12:44:44;;;;;;;16.50;8.70;;;;;;;;;;4988028;28;20802;-60
2023/12/02 12:47:11;;;;;;;16.30;9.68;;;;;;;;;;4986185;28;20037;-60
2023/12/02 12:49:39;;;;;;;13.70;8.80;;;;;;;;;;4993093;28;20764;-60
2023/12/02 12:52:07;;;;;;;18.52;8.77;;;;;;;;;;5000871;28;20032;-60
2023/12/02 12:54:35;;;;;;;18.17;8.63;;;;;;;;;;4998876;28;20060;-60
2023/12/02 12:57:05;;;;;;;14.55;8.25;;;;;;;;;;5000834;28;20670;-60
2023/12/02 12:59:33;;;;;;;13.13;7.22;;;;;;;;;;4993079;28;21363;-60
2023/12/02 13:02:05;;;;;;;12.48;7.25;;;;;;;;;;4995994;28;20029;-60
2023/12/02 13:04:31;;;;;;;9.73;6.20;;;;;;;;;;4998037;28;20032;-60
2023/12/02 13:07:03;;;;;;;10.45;6.28;;;;;;;;;;5000768;28;20060;-60
2023/12/02 13:09:31;;;;;;;10.45;6.03;;;;;;;;;;4999023;28;20045;-60
2023/12/02 13:12:06;;;;;;;10.75;5.57;;;;;;;;;;4997116;28;20123;-60
2023/12/02 13:14:53;;;;;;;8.70;4.63;;;;;;;;;;4999679;28;20029;-60
2023/12/02 13:17:19;;;;;;;8.25;4.40;;;;;;;;;;4999601;28;20054;-60
2023/12/02 13:19:46;;;;;;;7.80;3.67;;;;;;;;;;4999795;28;20026;-60
2023/12/02 13:22:13;;;;;;;9.63;4.05;;;;;;;;;;4985465;28;20030;-60
2023/12/02 13:24:44;;;;;;;6.93;3.60;;;;;;;;;;4996523;28;20029;-60
2023/12/02 13:27:14;;;;;;;7.15;3.88;;;;;;;;;;4991645;28;20037;-60
2023/12/02 13:29:41;;;;;;;9.63;3.95;;;;;;;;;;4995738;28;20036;-60
2023/12/02 13:32:08;;;;;;;8.88;3.65;;;;;;;;;;4994760;28;20709;-60
2023/12/02 13:34:49;;;;;;;6.53;3.42;;;;;;;;;;4998800;28;20045;-60
2023/12/02 13:37:16;;;;;;;6.40;3.67;;;;;;;;;;4998963;28;20497;-60
2023/12/02 13:39:46;;;;;;;6.65;3.63;;;;;;;;;;4998771;28;20032;-60
2023/12/02 13:42:12;;;;;;;6.53;3.58;;;;;;;;;;4996192;28;20033;-60
2023/12/02 13:44:40;;;;;;;6.45;3.60;;;;;;;;;;4996740;28;20026;-60
2023/12/02 13:47:12;;;;;;;7.22;3.70;;;;;;;;;;4998679;28;20044;-60
2023/12/02 13:49:41;;;;;;;6.38;3.00;;;;;;;;;;5002036;28;20810;-60
2023/12/02 13:52:09;;;;;;;5.97;3.20;;;;;;;;;;5000365;28;20033;-60
2023/12/02 13:54:56;;;;;;;6.90;2.90;;;;;;;;;;5000163;28;20029;-60
2023/12/02 13:57:44;;;;;;;7.47;3.42;;;;;;;;;;5000072;28;20049;-60
2023/12/02 14:00:11;;;;;;;7.63;2.78;;;;;;;;;;5000398;28;20145;-60
2023/12/02 14:02:51;;;;;;;9.57;3.00;;;;;;;;;;4999902;28;20049;-60
2023/12/02 14:05:53;;;;;;;8.90;3.40;;;;;;;;;;4999951;28;20120;-60
2023/12/02 14:08:20;;;;;;;6.35;3.33;;;;;;;;;;4996732;28;20084;-60
2023/12/02 14:10:50;;;;;;;6.07;3.13;;;;;;;;;;4998490;28;20049;-60
2023/12/02 14:13:22;;;;;;;7.13;3.53;;;;;;;;;;4999302;28;20038;-60
2023/12/02 14:15:53;;;;;;;5.85;3.28;;;;;;;;;;4999595;28;20488;-60
2023/12/02 14:18:24;;;;;;;6.93;3.33;;;;;;;;;;5000820;28;20167;-60
2023/12/02 14:20:53;;;;;;;9.20;3.70;;;;;;;;;;5000159;28;20120;-60
2023/12/02 14:23:37;;;;;;;11.43;3.92;;;;;;;;;;5001325;28;20048;-60
2023/12/02 14:26:06;;;;;;;7.80;3.42;;;;;;;;;;5000279;28;20676;-60